Time;durP1;ratioP1;P1;durP2;ratioP2;P2;SDS_P1;SDS_P2;PMS_P1;PMS_P2;Temp;Humidity;BMP_temperature;BMP_pressure;BME280_temperature;BME280_humidity;BME280_pressure;Samples;Min_cycle;Max_cycle;Signal;HPM_P1;HPM_P2
2023/07/04 04:43:04;;;;;;;10.77;2.93;;;;;;;15.93;51.33;100090.69;22535070;23;20501;-86
2023/07/04 04:53:14;;;;;;;8.10;2.60;;;;;;;15.48;52.05;100105.38;20236059;29;20213;-81
2023/07/04 05:03:17;;;;;;;13.63;2.92;;;;;;;15.50;52.41;100109.50;20237605;29;20205;-83
2023/07/04 05:13:19;;;;;;;14.77;3.28;;;;;;;15.52;52.49;100121.28;20251518;29;20277;-85
2023/07/04 05:23:22;;;;;;;14.48;2.95;;;;;;;14.90;53.67;100117.25;20216512;29;20264;-83
2023/07/04 05:33:24;;;;;;;11.90;2.87;;;;;;;16.05;50.76;100113.25;20229804;29;20669;-84
2023/07/04 05:43:27;;;;;;;11.82;3.30;;;;;;;16.39;49.81;100120.06;20234798;29;20241;-83
2023/07/04 05:53:33;;;;;;;12.43;2.70;;;;;;;15.40;53.07;100136.41;20250715;29;20290;-84
2023/07/04 06:03:36;;;;;;;12.87;3.20;;;;;;;15.75;52.43;100152.66;20221407;29;20197;-83
2023/07/04 06:13:39;;;;;;;14.10;2.80;;;;;;;16.06;51.75;100151.78;20211118;29;20233;-85
2023/07/04 06:23:43;;;;;;;14.40;3.28;;;;;;;15.32;52.70;100151.59;20223971;29;20618;-82
2023/07/04 06:33:45;;;;;;;14.48;4.40;;;;;;;17.10;49.00;100153.59;20215839;29;20213;-84
2023/07/04 06:43:48;;;;;;;17.27;5.28;;;;;;;16.34;50.74;100160.13;20224689;29;20233;-83
2023/07/04 06:53:51;;;;;;;17.25;4.53;;;;;;;16.49;49.15;100165.75;20236626;29;20672;-85
2023/07/04 07:03:54;;;;;;;16.10;3.72;;;;;;;16.73;47.71;100181.69;20222379;29;20316;-84
2023/07/04 07:13:58;;;;;;;12.88;3.40;;;;;;;17.25;46.42;100179.47;20207800;29;20325;-84
2023/07/04 07:24:01;;;;;;;7.75;3.40;;;;;;;17.82;45.85;100182.09;20213070;29;20658;-83
2023/07/04 07:34:04;;;;;;;15.18;2.83;;;;;;;16.72;46.29;100184.91;20224183;29;20292;-81
2023/07/04 07:44:09;;;;;;;12.27;2.92;;;;;;;17.87;43.52;100196.00;20233947;29;20228;-84
2023/07/04 07:54:13;;;;;;;10.25;3.00;;;;;;;17.32;44.16;100188.94;20224881;29;20269;-81
2023/07/04 08:04:16;;;;;;;7.97;1.98;;;;;;;17.72;43.27;100199.81;20228172;29;20260;-84
2023/07/04 08:14:21;;;;;;;8.55;2.40;;;;;;;18.46;39.99;100202.19;20226021;29;20296;-83
2023/07/04 08:24:25;;;;;;;11.07;2.05;;;;;;;18.68;40.78;100206.19;20254148;29;20459;-83
2023/07/04 08:34:28;;;;;;;7.93;2.33;;;;;;;17.72;41.06;100185.59;20233169;29;20221;-85
2023/07/04 08:44:48;;;;;;;8.23;2.00;;;;;;;17.86;39.68;100193.53;20215033;29;20225;-84
2023/07/04 08:54:53;;;;;;;9.95;2.03;;;;;;;18.30;37.11;100216.66;20242159;29;20238;-81
2023/07/04 09:05:02;;;;;;;7.97;2.17;;;;;;;19.52;36.87;100205.53;20263164;29;20258;-82
2023/07/04 09:15:34;;;;;;;5.13;1.30;;;;;;;19.08;35.98;100209.16;20223929;29;20268;-83
2023/07/04 09:25:37;;;;;;;6.22;1.45;;;;;;;18.03;35.46;100240.63;20216243;29;20205;-82
2023/07/04 09:35:39;;;;;;;7.75;1.77;;;;;;;20.18;33.40;100226.50;20188549;29;20229;-83
2023/07/04 09:45:42;;;;;;;6.03;1.73;;;;;;;19.93;33.31;100230.00;20149208;29;20283;-82
2023/07/04 09:56:00;;;;;;;7.13;1.73;;;;;;;19.94;34.19;100200.22;20119168;29;20274;-83
2023/07/04 10:06:04;;;;;;;6.28;1.45;;;;;;;19.04;34.20;100219.69;20123203;29;20206;-83
2023/07/04 10:16:23;;;;;;;4.85;1.33;;;;;;;19.82;33.59;100226.22;20135535;29;20278;-82
2023/07/04 10:26:25;;;;;;;5.10;1.30;;;;;;;20.43;32.69;100216.06;20100413;29;20201;-83
2023/07/04 10:36:31;;;;;;;3.65;1.40;;;;;;;20.64;32.54;100216.22;20138256;29;20576;-84
2023/07/04 10:46:43;;;;;;;5.78;1.50;;;;;;;20.49;31.85;100211.63;20184788;29;20642;-83
2023/07/04 10:56:50;;;;;;;6.80;1.48;;;;;;;21.53;32.85;100215.72;20198765;29;20225;-83
2023/07/04 11:07:03;;;;;;;5.53;1.33;;;;;;;21.28;32.94;100216.50;20204578;29;20247;-83
2023/07/04 11:17:10;;;;;;;7.60;1.55;;;;;;;21.20;30.27;100209.09;20202177;29;20268;-83
2023/07/04 11:27:15;;;;;;;9.73;1.77;;;;;;;22.44;29.63;100219.84;20206273;29;20479;-84
2023/07/04 11:37:36;;;;;;;7.88;1.45;;;;;;;21.35;30.67;100207.91;20204464;29;20281;-84
2023/07/04 11:47:55;;;;;;;6.85;1.50;;;;;;;21.91;29.23;100208.41;20209050;29;20293;-84
2023/07/04 11:58:05;;;;;;;6.13;1.27;;;;;;;22.17;29.14;100215.75;20206459;29;20221;-84
2023/07/04 12:08:13;;;;;;;2.67;1.17;;;;;;;21.72;28.95;100207.53;20196406;29;20607;-81
2023/07/04 12:18:23;;;;;;;4.72;1.92;;;;;;;22.38;27.85;100218.59;20219852;29;20225;-80
2023/07/04 12:28:28;;;;;;;3.97;1.70;;;;;;;21.63;29.83;100212.06;20216229;29;20201;-82
2023/07/04 12:38:33;;;;;;;6.40;2.00;;;;;;;21.41;30.22;100211.22;20228173;29;20705;-84
2023/07/04 12:48:36;;;;;;;5.07;2.33;;;;;;;21.58;30.97;100212.44;20237644;29;20214;-83
2023/07/04 12:58:43;;;;;;;5.97;2.20;;;;;;;21.08;29.69;100215.16;20209253;29;20282;-83
2023/07/04 13:08:48;;;;;;;5.53;1.83;;;;;;;21.01;29.71;100206.56;20207952;29;20205;-84
2023/07/04 13:18:52;;;;;;;6.20;3.03;;;;;;;21.74;29.39;100207.97;20221110;29;20225;-82
2023/07/04 13:28:58;;;;;;;7.82;2.33;;;;;;;21.64;30.04;100205.09;20210734;29;20598;-82
2023/07/04 13:39:04;;;;;;;8.68;2.80;;;;;;;22.90;29.32;100195.91;20217604;29;20225;-83
2023/07/04 13:49:09;;;;;;;11.40;3.25;;;;;;;22.53;30.28;100193.59;20214892;29;20205;-84
2023/07/04 13:59:12;;;;;;;8.52;3.25;;;;;;;22.02;29.98;100197.75;20228106;29;20574;-83
2023/07/04 14:09:16;;;;;;;7.15;2.60;;;;;;;22.46;29.77;100205.91;20202756;29;20210;-82
2023/07/04 14:19:18;;;;;;;6.30;3.10;;;;;;;22.67;29.58;100188.63;20212742;29;20793;-83
2023/07/04 14:29:24;;;;;;;6.07;3.38;;;;;;;22.84;29.38;100184.88;20214935;29;20198;-86
2023/07/04 14:39:26;;;;;;;9.70;4.47;;;;;;;22.61;29.26;100189.44;20228609;29;20650;-80
2023/07/04 14:49:29;;;;;;;6.50;4.53;;;;;;;22.98;27.78;100174.59;20211128;29;20202;-83
2023/07/04 14:59:35;;;;;;;9.35;4.78;;;;;;;22.42;29.08;100177.25;20211957;29;20221;-82
2023/07/04 15:09:37;;;;;;;22.35;6.53;;;;;;;22.60;29.36;100165.69;20228237;29;20276;-81
2023/07/04 15:19:40;;;;;;;6.20;4.47;;;;;;;22.15;29.37;100165.41;20186780;29;20292;-85
2023/07/04 15:29:43;;;;;;;7.78;4.47;;;;;;;22.11;29.63;100161.72;20227288;29;20265;-83
2023/07/04 15:39:45;;;;;;;7.65;4.72;;;;;;;22.83;28.77;100143.06;20177418;29;20234;-82
2023/07/04 15:49:48;;;;;;;110.28;87.38;;;;;;;22.85;28.00;100132.00;20207050;29;20202;-82
2023/07/04 15:59:51;;;;;;;5.72;4.45;;;;;;;22.28;28.71;100116.22;20245368;29;20566;-76
2023/07/04 16:09:54;;;;;;;6.43;4.80;;;;;;;21.74;28.75;100118.34;20226459;29;20197;-78
2023/07/04 16:19:56;;;;;;;8.02;5.10;;;;;;;22.41;29.47;100117.44;20230514;29;20229;-73
2023/07/04 16:30:00;;;;;;;10.13;5.43;;;;;;;22.61;29.21;100098.50;20242272;29;20221;-77
2023/07/04 16:40:03;;;;;;;8.32;4.70;;;;;;;22.55;28.93;100094.44;20284924;29;20233;-77
2023/07/04 16:50:07;;;;;;;7.50;5.20;;;;;;;22.91;28.05;100094.22;20209506;29;20201;-79
2023/07/04 17:00:30;;;;;;;11.88;5.35;;;;;;;22.90;29.02;100081.94;20210095;29;20282;-80
2023/07/04 17:10:32;;;;;;;8.00;4.90;;;;;;;22.64;30.38;100074.72;20238717;29;20206;-79
2023/07/04 17:20:36;;;;;;;10.15;5.18;;;;;;;22.35;29.91;100067.44;20225906;29;20286;-78
2023/07/04 17:30:39;;;;;;;11.48;5.10;;;;;;;22.71;29.23;100048.06;20227757;29;20210;-79
2023/07/04 17:40:41;;;;;;;8.57;4.68;;;;;;;22.83;28.87;100048.38;20235586;29;20229;-81
2023/07/04 17:50:43;;;;;;;11.50;7.80;;;;;;;22.74;29.85;100045.16;20241761;29;20221;-79
2023/07/04 18:00:46;;;;;;;6.30;4.68;;;;;;;22.47;30.70;100053.50;20218375;29;20238;-81
2023/07/04 18:10:48;;;;;;;11.38;4.55;;;;;;;22.83;30.24;100050.44;20204404;29;20249;-81
2023/07/04 18:21:13;;;;;;;9.23;4.78;;;;;;;22.76;29.80;100039.00;20238215;29;20225;-83
2023/07/04 18:31:18;;;;;;;7.88;4.43;;;;;;;22.67;31.00;100025.13;20227814;29;20262;-83
2023/07/04 18:41:23;;;;;;;13.85;5.28;;;;;;;22.26;31.29;100019.16;20239109;29;20224;-81
2023/07/04 18:51:34;;;;;;;7.28;5.05;;;;;;;22.04;31.97;100012.72;20232988;29;20263;-81
2023/07/04 19:01:37;;;;;;;9.82;5.18;;;;;;;22.25;32.75;100005.25;20234396;29;20351;-81
2023/07/04 19:11:41;;;;;;;11.23;5.72;;;;;;;22.10;34.15;100004.50;20247392;29;20214;-81
2023/07/04 19:21:45;;;;;;;9.32;4.72;;;;;;;21.78;34.72;100004.59;20230259;29;20224;-81
2023/07/04 19:31:49;;;;;;;8.40;5.38;;;;;;;21.58;38.43;100009.94;20201507;29;20234;-81
2023/07/04 19:41:52;;;;;;;10.75;5.80;;;;;;;20.41;43.78;100029.84;20252652;29;20261;-79
2023/07/04 19:51:55;;;;;;;9.57;6.20;;;;;;;20.41;44.46;100007.00;20211172;29;20223;-79
2023/07/04 20:01:58;;;;;;;10.80;6.28;;;;;;;19.96;49.18;100019.91;20223798;29;20274;-79
2023/07/04 20:12:00;;;;;;;11.95;7.68;;;;;;;19.62;54.83;100033.53;20238865;29;20201;-79
2023/07/04 20:22:04;;;;;;;10.93;7.32;;;;;;;19.02;58.87;100008.19;20224884;29;20229;-80
2023/07/04 20:32:07;;;;;;;16.50;8.52;;;;;;;18.95;64.05;99999.59;20235534;29;20205;-79
2023/07/04 20:42:10;;;;;;;11.25;8.18;;;;;;;19.13;62.68;99954.91;20260831;29;20284;-80
2023/07/04 20:52:12;;;;;;;14.23;8.20;;;;;;;18.90;62.12;99942.94;20204671;29;20511;-80
2023/07/04 21:02:20;;;;;;;13.60;7.75;;;;;;;18.95;62.91;99925.47;20235117;29;20217;-80
2023/07/04 21:12:24;;;;;;;13.82;8.05;;;;;;;18.60;61.82;99915.34;20226056;29;20256;-80
2023/07/04 21:22:27;;;;;;;12.18;8.80;;;;;;;18.85;59.85;99897.66;20242582;29;20250;-80
2023/07/04 21:32:29;;;;;;;12.95;8.43;;;;;;;18.31;61.71;99890.69;20266326;29;20597;-81
2023/07/04 21:42:33;;;;;;;14.30;8.88;;;;;;;18.63;61.25;99863.31;20217117;29;20261;-80
2023/07/04 21:52:36;;;;;;;12.95;8.27;;;;;;;18.63;63.69;99863.31;20254442;29;20197;-80
2023/07/04 22:02:39;;;;;;;12.00;8.20;;;;;;;18.66;60.26;99838.91;20234028;29;20225;-80
2023/07/04 22:12:41;;;;;;;15.20;8.65;;;;;;;18.26;61.98;99826.34;20204156;29;20614;-80
2023/07/04 22:22:44;;;;;;;14.13;9.68;;;;;;;18.41;62.93;99820.78;20197166;29;20221;-80
2023/07/04 22:32:46;;;;;;;13.35;8.23;;;;;;;17.71;63.12;99794.06;20191266;29;20205;-80
2023/07/04 22:42:49;;;;;;;12.15;7.85;;;;;;;18.35;60.20;99760.50;20212996;29;20285;-79
2023/07/04 22:52:52;;;;;;;8.65;7.20;;;;;;;18.43;59.68;99736.56;20239928;29;20204;-79
2023/07/04 23:02:54;;;;;;;14.48;7.93;;;;;;;18.33;61.60;99723.03;20218509;29;20220;-79
2023/07/04 23:12:57;;;;;;;10.45;6.82;;;;;;;18.46;60.42;99686.47;20227753;29;20250;-79
2023/07/04 23:23:00;;;;;;;12.75;8.57;;;;;;;18.09;59.73;99678.13;20190868;29;20265;-80
2023/07/04 23:33:03;;;;;;;12.90;7.82;;;;;;;17.74;60.40;99650.19;20195707;29;20197;-80
2023/07/04 23:43:05;;;;;;;11.38;7.32;;;;;;;17.54;60.60;99646.75;20213057;29;20250;-79
2023/07/04 23:53:08;;;;;;;9.00;6.68;;;;;;;17.70;58.89;99633.06;20231752;29;20205;-79
